ADDS METAR Data INFO
IDs: Format: Raw Decoded Include TAF

Data at: 0501 UTC 25 May 2018

KMWL 250453Z AUTO 14007KT 10SM CLR 23/18 A2999 RMK AO2 SLP143 T02280178
KMWL 250353Z AUTO 14007KT 10SM CLR 24/18 A3000 RMK AO2 SLP143 T02390178
KMWL 250253Z AUTO 14005KT 10SM CLR 24/18 A2998 RMK AO2 SLP140 T02440183 53009
KMWL 250153Z AUTO 12006KT 10SM CLR 26/18 A2997 RMK AO2 SLP137 T02610183
KMWL 250053Z AUTO 11006KT 10SM CLR 28/19 A2996 RMK AO2 SLP131 T02830194
KMWL 242353Z AUTO 13006KT 10SM CLR 29/19 A2996 RMK AO2 SLP131 T02940189 10322 20294 56017
KMWL 242253Z AUTO 14010KT 10SM CLR 32/18 A2997 RMK AO2 SLP134 T03170183
KMWL 242153Z AUTO 17007KT 10SM CLR 32/17 A2999 RMK AO2 SLP141 T03170172
KMWL 242053Z AUTO 14009KT 10SM CLR 32/18 A3001 RMK AO2 SLP148 T03170183 56019
KMWL 241953Z AUTO 14011KT 10SM FEW041 31/19 A3003 RMK AO2 SLP155 T03110189
KMWL 241853Z AUTO 17009KT 10SM FEW037 30/19 A3004 RMK AO2 SLP160 T03000194
KMWL 241753Z AUTO 15007KT 110V190 10SM CLR 29/19 A3007 RMK AO2 SLP168 T02940189 10300 20194 56006
KMWL 241653Z AUTO 15012KT 10SM BKN030 29/20 A3008 RMK AO2 SLP171 T02890200
KMWL 241553Z AUTO 15006KT 10SM CLR 27/21 A3008 RMK AO2 SLP171 T02720206
KMWL 241453Z AUTO 16005KT 10SM CLR 24/21 A3009 RMK AO2 SLP176 T02440206 53011
KMWL 241353Z AUTO 17005KT 10SM CLR 23/20 A3008 RMK AO2 SLP172 T02330200
KMWL 241253Z AUTO 15006KT 10SM CLR 22/19 A3006 RMK AO2 SLP167 T02170194
KMWL 241153Z AUTO 15003KT 9SM CLR 20/19 A3005 RMK AO2 SLP163 T02000189 10217 20194 53009
KMWL 241053Z AUTO 14006KT 10SM CLR 19/18 A3004 RMK AO2 SLP157 T01940183
KMWL 240953Z AUTO 13006KT 10SM CLR 19/18 A3003 RMK AO2 SLP156 T01940183
KMWL 240853Z AUTO 14006KT 10SM CLR 20/18 A3003 RMK AO2 SLP154 T02000183 56008
KMWL 240753Z AUTO 14007KT 10SM CLR 21/19 A3004 RMK AO2 SLP158 T02060189
KMWL 240653Z AUTO 15007KT 10SM CLR 21/19 A3004 RMK AO2 SLP159 T02110189
KMWL 240553Z AUTO 14007KT 10SM CLR 22/19 A3005 RMK AO2 SLP163 T02170194 10306 20217 403220194 51017
KMWL 240453Z AUTO 15006KT 10SM CLR 22/19 A3005 RMK AO2 SLP162 T02220189
KMWL 240353Z AUTO 13006KT 10SM CLR 23/18 A3003 RMK AO2 SLP154 T02330183
KMWL 240153Z AUTO 13004KT 10SM CLR 26/18 A2998 RMK AO2 SLP138 T02610178
KMWL 240053Z AUTO 13007KT 10SM CLR 28/17 A2996 RMK AO2 SLP132 T02830172
KMWL 232353Z AUTO 14007KT 10SM CLR 31/17 A2996 RMK AO2 SLP131 T03060167 10322 20294 58009
KMWL 232253Z AUTO 14011KT 10SM CLR 31/18 A2997 RMK AO2 SLP135 T03110178
KMWL 232153Z AUTO 13011KT 10SM CLR 32/17 A2998 RMK AO2 SLP138 T03170172
KMWL 232053Z AUTO 12011KT 10SM FEW050 32/18 A2999 RMK AO2 SLP141 T03170178 58018
KMWL 231953Z AUTO 13011KT 10SM SCT049 SCT060 31/19 A3001 RMK AO2 SLP148 T03110189
KMWL 231853Z AUTO 16007G15KT 10SM FEW046 31/18 A3003 RMK AO2 SLP155 T03110178
KMWL 231753Z AUTO 14011KT 10SM FEW043 30/19 A3004 RMK AO2 SLP160 T03000189 10306 20200 58004